createdAt,value
2018-02-05T00:04:19.640Z,-2.8
2018-02-05T00:09:19.643Z,-2.9
2018-02-05T00:14:19.674Z,-2.9
2018-02-05T00:19:19.657Z,-2.9
2018-02-05T00:24:19.650Z,-3
2018-02-05T00:29:19.661Z,-2.9
2018-02-05T00:34:19.796Z,-3.2
2018-02-05T00:39:19.651Z,-3.1
2018-02-05T00:44:19.659Z,-3
2018-02-05T00:49:19.797Z,-3.1
2018-02-05T00:54:19.669Z,-3.1
2018-02-05T00:59:19.674Z,-3.3
2018-02-05T01:04:19.914Z,-3.2
2018-02-05T01:09:19.932Z,-3.2
2018-02-05T01:14:19.866Z,-3.2
2018-02-05T01:19:19.845Z,-3.2
2018-02-05T01:24:19.736Z,-3.2
2018-02-05T01:29:19.723Z,-3.3
2018-02-05T01:34:19.915Z,-3.3
2018-02-05T01:39:19.766Z,-3.3
2018-02-05T01:44:19.784Z,-3.3
2018-02-05T01:49:19.781Z,-3.4
2018-02-05T01:54:19.799Z,-3.4
2018-02-05T01:59:19.781Z,-3.4
2018-02-05T02:04:19.788Z,-3.5
2018-02-05T02:09:20.956Z,-3.5
2018-02-05T02:14:25.773Z,-3.6
2018-02-05T02:19:20.789Z,-3.7
2018-02-05T02:24:20.863Z,-3.7
2018-02-05T02:29:20.697Z,-3.6
2018-02-05T02:34:20.629Z,-3.6
2018-02-05T02:39:20.688Z,-3.7
2018-02-05T02:44:20.692Z,-3.6
2018-02-05T02:49:20.712Z,-3.7
2018-02-05T02:54:20.648Z,-3.7
2018-02-05T02:59:20.890Z,-3.7
2018-02-05T03:04:20.701Z,-3.7
2018-02-05T03:09:20.691Z,-3.8
2018-02-05T03:14:20.699Z,-3.9
2018-02-05T03:19:20.924Z,-3.9
2018-02-05T03:24:20.827Z,-3.9
2018-02-05T03:29:20.709Z,-3.8
2018-02-05T03:34:20.717Z,-3.7
2018-02-05T03:39:20.735Z,-3.8
2018-02-05T03:44:20.861Z,-3.8
2018-02-05T03:49:20.786Z,-3.8
2018-02-05T03:54:20.929Z,-3.7
2018-02-05T03:59:20.849Z,-3.8
2018-02-05T04:04:20.853Z,-3.9
2018-02-05T04:09:21.056Z,-3.9
2018-02-05T04:14:20.990Z,-4.1
2018-02-05T04:19:20.867Z,-4
2018-02-05T04:24:20.915Z,-4
2018-02-05T04:29:20.873Z,-4.1
2018-02-05T04:34:20.870Z,-4.1
2018-02-05T04:39:20.872Z,-4.2
2018-02-05T04:44:20.887Z,-4.2
2018-02-05T04:49:20.865Z,-4.2
2018-02-05T04:54:20.855Z,-4.2
2018-02-05T04:59:21.152Z,-4.1
2018-02-05T05:04:21.078Z,-4.2
2018-02-05T05:09:21.054Z,-4.2
2018-02-05T05:14:21.071Z,-4.2
2018-02-05T05:19:21.217Z,-4.4
2018-02-05T05:24:21.068Z,-4.4
2018-02-05T05:29:21.069Z,-4.3
2018-02-05T05:34:21.194Z,-4.4
2018-02-05T05:39:21.258Z,-4.5
2018-02-05T05:44:21.087Z,-4.5
2018-02-05T05:49:21.216Z,-4.5
2018-02-05T05:54:21.053Z,-4.5
2018-02-05T05:59:21.044Z,-4.6
2018-02-05T06:04:21.095Z,-4.6
2018-02-05T06:09:21.107Z,-4.6
2018-02-05T06:14:21.183Z,-4.7
2018-02-05T06:19:21.180Z,-4.6
2018-02-05T06:24:21.179Z,-4.6
2018-02-05T06:29:21.181Z,-4.6
2018-02-05T06:34:21.425Z,-4.6
2018-02-05T06:39:21.188Z,-4.6
2018-02-05T06:44:21.446Z,-4.7
2018-02-05T06:49:21.448Z,-4.6
2018-02-05T06:54:21.440Z,-4.6
2018-02-05T06:59:23.336Z,-4.5
2018-02-05T07:04:28.608Z,-4.5
2018-02-05T07:09:23.528Z,-4.3
2018-02-05T07:14:23.753Z,-4.2
2018-02-05T07:19:23.995Z,-4
2018-02-05T07:24:23.904Z,-3.9
2018-02-05T07:29:23.789Z,-3.7
2018-02-05T07:34:23.970Z,-3.5
2018-02-05T07:39:23.792Z,-3.4
2018-02-05T07:44:23.937Z,-3.2
2018-02-05T07:49:23.808Z,-3
2018-02-05T07:54:23.801Z,-2.9
2018-02-05T07:59:23.936Z,-2.7
2018-02-05T08:04:23.805Z,-2.4
2018-02-05T08:09:24.012Z,-2.2
2018-02-05T08:14:23.911Z,-1.8
2018-02-05T08:19:23.979Z,-1.6
2018-02-05T08:24:23.825Z,-1.5
2018-02-05T08:29:23.940Z,-1.2
2018-02-05T08:34:23.829Z,-1
2018-02-05T08:39:23.837Z,-0.8
2018-02-05T08:44:23.846Z,-0.6
2018-02-05T08:49:23.973Z,-0.5
2018-02-05T08:54:23.829Z,-0.3
2018-02-05T08:59:23.851Z,-0.4
2018-02-05T09:04:23.859Z,-0.4
2018-02-05T09:09:23.809Z,-0.3
2018-02-05T09:14:23.849Z,-0.3
2018-02-05T09:19:23.850Z,-0.1
2018-02-05T09:24:24.099Z,0
2018-02-05T09:29:23.950Z,0
2018-02-05T09:34:23.941Z,-0.1
2018-02-05T09:39:23.956Z,0
2018-02-05T09:44:24.011Z,0
2018-02-05T09:49:23.992Z,0.1
2018-02-05T09:54:24.052Z,0.1
2018-02-05T09:59:24.060Z,0.3
2018-02-05T10:04:24.288Z,0.5
2018-02-05T10:09:24.003Z,0.6
2018-02-05T10:14:24.052Z,0.5
2018-02-05T10:19:24.384Z,0.6
2018-02-05T10:24:24.419Z,0.8
2018-02-05T10:29:24.324Z,1
2018-02-05T10:34:24.191Z,1.2
2018-02-05T10:39:24.202Z,1.3
2018-02-05T10:44:24.155Z,1.3
2018-02-05T10:49:24.199Z,1.3
2018-02-05T10:54:24.406Z,1.4
2018-02-05T10:59:24.638Z,1.2
2018-02-05T11:04:24.426Z,1.3
2018-02-05T11:09:24.469Z,1.5
2018-02-05T11:14:24.456Z,1.5
2018-02-05T11:19:24.483Z,1.2
2018-02-05T11:24:24.707Z,1.4
2018-02-05T11:29:24.615Z,1.4
2018-02-05T11:34:24.565Z,1.4
2018-02-05T11:39:24.575Z,1.5
2018-02-05T11:44:24.586Z,1.7
2018-02-05T11:49:25.020Z,2
2018-02-05T11:54:30.140Z,2.1
2018-02-05T11:59:25.027Z,2.2
2018-02-05T12:04:25.016Z,2.4
2018-02-05T12:09:25.054Z,2.4
2018-02-05T12:14:25.054Z,2.5
2018-02-05T12:19:25.167Z,2.7
2018-02-05T12:24:24.998Z,2.7
2018-02-05T12:29:25.159Z,2.9
2018-02-05T12:34:25.094Z,3.1
2018-02-05T12:39:25.198Z,3.1
2018-02-05T12:44:25.058Z,2.9
2018-02-05T12:49:25.049Z,3.1
2018-02-05T12:54:25.064Z,2.9
2018-02-05T12:59:25.073Z,2.8
2018-02-05T13:04:25.070Z,2.9
2018-02-05T13:09:25.042Z,2.8
2018-02-05T13:14:25.075Z,2.9
2018-02-05T13:19:25.029Z,2.8
2018-02-05T13:24:25.091Z,2.9
2018-02-05T13:29:25.032Z,2.8
2018-02-05T13:34:25.087Z,2.9
2018-02-05T13:39:25.088Z,2.9
2018-02-05T13:44:25.091Z,3.1
2018-02-05T13:49:25.301Z,3
2018-02-05T13:54:25.087Z,2.6
2018-02-05T13:59:25.268Z,2.4
2018-02-05T14:04:25.087Z,2.4
2018-02-05T14:09:25.153Z,2.2
2018-02-05T14:14:25.217Z,2.2
2018-02-05T14:19:25.279Z,2.3
2018-02-05T14:24:25.331Z,2.4
2018-02-05T14:29:25.327Z,2.5
2018-02-05T14:34:25.164Z,2.4
2018-02-05T14:39:25.203Z,2.2
2018-02-05T14:44:25.352Z,2.2
2018-02-05T14:49:25.391Z,2
2018-02-05T14:54:25.443Z,1.9
2018-02-05T14:59:25.457Z,1.9
2018-02-05T15:04:25.380Z,1.8
2018-02-05T15:09:25.410Z,1.7
2018-02-05T15:14:25.317Z,1.7
2018-02-05T15:19:25.391Z,1.5
2018-02-05T15:24:25.445Z,1.5
2018-02-05T15:29:25.234Z,1.4
2018-02-05T15:34:25.236Z,1.3
2018-02-05T15:39:25.232Z,1.3
2018-02-05T15:44:25.461Z,1.3
2018-02-05T15:49:25.376Z,1.2
2018-02-05T15:54:25.428Z,1.1
2018-02-05T15:59:25.452Z,1.1
2018-02-05T16:04:25.491Z,1.1
2018-02-05T16:09:25.408Z,1
2018-02-05T16:14:25.238Z,1
2018-02-05T16:19:25.488Z,0.9
2018-02-05T16:24:25.257Z,0.9
2018-02-05T16:29:25.460Z,0.9
2018-02-05T16:34:25.373Z,0.9
2018-02-05T16:39:25.279Z,0.9
2018-02-05T16:44:29.026Z,0.9
2018-02-05T16:49:34.580Z,0.9
2018-02-05T16:54:29.021Z,0.9
2018-02-05T16:59:28.572Z,0.9
2018-02-05T17:04:28.592Z,0.8
2018-02-05T17:09:28.593Z,0.8
2018-02-05T17:14:28.533Z,0.8
2018-02-05T17:19:28.920Z,0.8
2018-02-05T17:24:28.568Z,0.8
2018-02-05T17:29:28.586Z,0.8
2018-02-05T17:34:29.034Z,0.8
2018-02-05T17:39:28.579Z,0.8
2018-02-05T17:44:28.947Z,0.7
2018-02-05T17:49:28.589Z,0.7
2018-02-05T17:54:28.614Z,0.7
2018-02-05T17:59:28.597Z,0.7
2018-02-05T18:04:28.603Z,0.7
2018-02-05T18:09:28.598Z,0.6
2018-02-05T18:14:28.812Z,0.6
2018-02-05T18:19:28.858Z,0.6
2018-02-05T18:24:29.256Z,0.5
2018-02-05T18:29:29.401Z,0.5
2018-02-05T18:34:29.584Z,0.5
2018-02-05T18:39:28.690Z,0.5
2018-02-05T18:44:28.824Z,0.4
2018-02-05T18:49:28.864Z,0.4
2018-02-05T18:54:28.870Z,0.4
2018-02-05T18:59:28.693Z,0.4
2018-02-05T19:04:29.649Z,0.4
2018-02-05T19:09:28.708Z,0.4
2018-02-05T19:14:28.700Z,0.4
2018-02-05T19:19:28.835Z,0.4
2018-02-05T19:24:29.034Z,0.4
2018-02-05T19:29:29.047Z,0.3
2018-02-05T19:34:29.076Z,0.4
2018-02-05T19:39:29.043Z,0.3
2018-02-05T19:44:29.023Z,0.3
2018-02-05T19:49:29.094Z,0.3
2018-02-05T19:54:29.087Z,0.3
2018-02-05T19:59:29.109Z,0.3
2018-02-05T20:04:29.057Z,0.3
2018-02-05T20:09:29.124Z,0.3
2018-02-05T20:14:29.115Z,0.3
2018-02-05T20:19:29.111Z,0.3
2018-02-05T20:24:29.430Z,0.3
2018-02-05T20:29:29.174Z,0.2
2018-02-05T20:34:29.173Z,0.2
2018-02-05T20:39:29.252Z,0.2
2018-02-05T20:44:29.254Z,0.2
2018-02-05T20:49:29.249Z,0.2
2018-02-05T20:54:29.279Z,0.2
2018-02-05T20:59:29.250Z,0.2
2018-02-05T21:04:29.403Z,0.2
2018-02-05T21:09:29.252Z,0.2
2018-02-05T21:14:29.530Z,0.2
2018-02-05T21:19:29.309Z,0.1
2018-02-05T21:24:29.381Z,0.1
2018-02-05T21:29:29.329Z,0.1
2018-02-05T21:34:29.405Z,0.1
2018-02-05T21:39:33.799Z,0.1
2018-02-05T21:44:38.620Z,0
2018-02-05T21:49:43.985Z,0
2018-02-05T21:54:48.846Z,0
2018-02-05T21:59:53.917Z,0
2018-02-05T22:04:59.219Z,0
2018-02-05T22:09:53.882Z,0
2018-02-05T22:14:53.915Z,0
2018-02-05T22:19:53.956Z,-0.1
2018-02-05T22:24:53.936Z,-0.1
2018-02-05T22:29:53.927Z,-0.1
2018-02-05T22:34:53.934Z,-0.1
2018-02-05T22:39:53.944Z,-0.1
2018-02-05T22:44:57.040Z,-0.1
2018-02-05T22:49:54.040Z,-0.2
2018-02-05T22:54:54.038Z,-0.3
2018-02-05T22:59:54.111Z,-0.3
2018-02-05T23:04:53.946Z,-0.3
2018-02-05T23:09:54.170Z,-0.4
2018-02-05T23:14:54.106Z,-0.4
2018-02-05T23:19:54.137Z,-0.4
2018-02-05T23:24:53.976Z,-0.5
2018-02-05T23:29:54.130Z,-0.5
2018-02-05T23:34:53.950Z,-0.5
2018-02-05T23:39:54.174Z,-0.6
2018-02-05T23:44:54.095Z,-0.6
2018-02-05T23:49:54.155Z,-0.6
2018-02-05T23:54:54.164Z,-0.6
2018-02-05T23:59:54.203Z,-0.6
